sensor_id;sensor_type;location;lat;lon;timestamp;P1;durP1;ratioP1;P2;durP2;ratioP2
13406;SDS011;6774;48.208;10.766;2023-03-23T00:00:52;5.07;;;4.67;;
13406;SDS011;6774;48.208;10.766;2023-03-23T00:03:20;5.30;;;4.90;;
13406;SDS011;6774;48.208;10.766;2023-03-23T00:05:47;4.93;;;4.63;;
13406;SDS011;6774;48.208;10.766;2023-03-23T00:08:16;5.33;;;4.80;;
13406;SDS011;6774;48.208;10.766;2023-03-23T00:10:43;4.20;;;3.90;;
13406;SDS011;6774;48.208;10.766;2023-03-23T00:13:09;4.27;;;3.87;;
13406;SDS011;6774;48.208;10.766;2023-03-23T00:15:39;7.03;;;4.60;;
13406;SDS011;6774;48.208;10.766;2023-03-23T00:18:06;6.13;;;3.87;;
13406;SDS011;6774;48.208;10.766;2023-03-23T00:20:33;3.93;;;3.63;;
13406;SDS011;6774;48.208;10.766;2023-03-23T00:23:06;5.50;;;5.00;;
13406;SDS011;6774;48.208;10.766;2023-03-23T00:25:33;4.80;;;4.43;;
13406;SDS011;6774;48.208;10.766;2023-03-23T00:27:59;4.47;;;4.17;;
13406;SDS011;6774;48.208;10.766;2023-03-23T00:30:28;4.63;;;4.33;;
13406;SDS011;6774;48.208;10.766;2023-03-23T00:32:56;3.67;;;3.27;;
13406;SDS011;6774;48.208;10.766;2023-03-23T00:35:23;3.67;;;3.47;;
13406;SDS011;6774;48.208;10.766;2023-03-23T00:37:50;3.97;;;3.67;;
13406;SDS011;6774;48.208;10.766;2023-03-23T00:40:18;4.27;;;3.97;;
13406;SDS011;6774;48.208;10.766;2023-03-23T00:42:45;4.23;;;3.97;;
13406;SDS011;6774;48.208;10.766;2023-03-23T00:45:13;5.27;;;4.87;;
13406;SDS011;6774;48.208;10.766;2023-03-23T00:47:40;4.00;;;3.70;;
13406;SDS011;6774;48.208;10.766;2023-03-23T00:50:13;3.13;;;2.93;;
13406;SDS011;6774;48.208;10.766;2023-03-23T00:52:39;4.37;;;3.83;;
13406;SDS011;6774;48.208;10.766;2023-03-23T00:55:07;4.13;;;3.90;;
13406;SDS011;6774;48.208;10.766;2023-03-23T00:57:33;3.83;;;3.57;;
13406;SDS011;6774;48.208;10.766;2023-03-23T01:00:00;4.63;;;3.70;;
13406;SDS011;6774;48.208;10.766;2023-03-23T01:02:28;4.03;;;3.67;;
13406;SDS011;6774;48.208;10.766;2023-03-23T01:04:55;4.07;;;3.77;;
13406;SDS011;6774;48.208;10.766;2023-03-23T01:07:25;4.57;;;4.17;;
13406;SDS011;6774;48.208;10.766;2023-03-23T01:09:53;6.30;;;4.70;;
13406;SDS011;6774;48.208;10.766;2023-03-23T01:12:19;5.33;;;4.83;;
13406;SDS011;6774;48.208;10.766;2023-03-23T01:14:49;5.40;;;4.90;;
13406;SDS011;6774;48.208;10.766;2023-03-23T01:17:16;4.80;;;4.40;;
13406;SDS011;6774;48.208;10.766;2023-03-23T01:19:44;4.60;;;3.90;;
13406;SDS011;6774;48.208;10.766;2023-03-23T01:22:10;7.33;;;5.77;;
13406;SDS011;6774;48.208;10.766;2023-03-23T01:24:38;5.07;;;4.57;;
13406;SDS011;6774;48.208;10.766;2023-03-23T01:27:05;4.47;;;4.17;;
13406;SDS011;6774;48.208;10.766;2023-03-23T01:29:32;5.53;;;5.23;;
13406;SDS011;6774;48.208;10.766;2023-03-23T01:32:00;3.67;;;3.47;;
13406;SDS011;6774;48.208;10.766;2023-03-23T01:34:26;3.20;;;2.97;;
13406;SDS011;6774;48.208;10.766;2023-03-23T01:36:54;4.00;;;3.70;;
13406;SDS011;6774;48.208;10.766;2023-03-23T01:39:20;5.03;;;4.53;;
13406;SDS011;6774;48.208;10.766;2023-03-23T01:41:48;5.03;;;4.63;;
13406;SDS011;6774;48.208;10.766;2023-03-23T01:47:24;4.57;;;4.17;;
13406;SDS011;6774;48.208;10.766;2023-03-23T01:49:54;7.17;;;6.17;;
13406;SDS011;6774;48.208;10.766;2023-03-23T01:52:22;4.10;;;3.80;;
13406;SDS011;6774;48.208;10.766;2023-03-23T01:54:58;3.10;;;2.90;;
13406;SDS011;6774;48.208;10.766;2023-03-23T01:57:26;3.73;;;3.53;;
13406;SDS011;6774;48.208;10.766;2023-03-23T01:59:56;3.50;;;3.30;;
13406;SDS011;6774;48.208;10.766;2023-03-23T02:02:39;3.23;;;2.93;;
13406;SDS011;6774;48.208;10.766;2023-03-23T02:05:08;3.00;;;2.80;;
13406;SDS011;6774;48.208;10.766;2023-03-23T02:07:41;2.87;;;2.67;;
13406;SDS011;6774;48.208;10.766;2023-03-23T02:10:09;4.47;;;4.17;;
13406;SDS011;6774;48.208;10.766;2023-03-23T02:12:37;4.23;;;4.00;;
13406;SDS011;6774;48.208;10.766;2023-03-23T02:15:04;4.10;;;3.83;;
13406;SDS011;6774;48.208;10.766;2023-03-23T02:17:34;3.93;;;3.63;;
13406;SDS011;6774;48.208;10.766;2023-03-23T02:20:07;4.60;;;3.23;;
13406;SDS011;6774;48.208;10.766;2023-03-23T02:22:48;3.50;;;3.20;;
13406;SDS011;6774;48.208;10.766;2023-03-23T02:25:29;4.87;;;4.57;;
13406;SDS011;6774;48.208;10.766;2023-03-23T02:28:23;3.60;;;3.30;;
13406;SDS011;6774;48.208;10.766;2023-03-23T02:34:01;3.43;;;3.10;;
13406;SDS011;6774;48.208;10.766;2023-03-23T02:36:32;4.90;;;4.50;;
13406;SDS011;6774;48.208;10.766;2023-03-23T02:39:05;4.10;;;3.90;;
13406;SDS011;6774;48.208;10.766;2023-03-23T02:41:38;2.63;;;2.43;;
13406;SDS011;6774;48.208;10.766;2023-03-23T02:44:09;3.73;;;3.43;;
13406;SDS011;6774;48.208;10.766;2023-03-23T02:46:37;4.03;;;3.60;;
13406;SDS011;6774;48.208;10.766;2023-03-23T02:49:08;5.30;;;3.90;;
13406;SDS011;6774;48.208;10.766;2023-03-23T02:51:37;4.07;;;3.73;;
13406;SDS011;6774;48.208;10.766;2023-03-23T02:54:05;3.37;;;3.13;;
13406;SDS011;6774;48.208;10.766;2023-03-23T02:56:34;4.23;;;3.93;;
13406;SDS011;6774;48.208;10.766;2023-03-23T02:59:06;3.73;;;3.53;;
13406;SDS011;6774;48.208;10.766;2023-03-23T03:01:47;3.63;;;3.30;;
13406;SDS011;6774;48.208;10.766;2023-03-23T03:04:22;4.20;;;3.90;;
13406;SDS011;6774;48.208;10.766;2023-03-23T03:06:55;5.77;;;5.33;;
13406;SDS011;6774;48.208;10.766;2023-03-23T03:09:37;3.63;;;3.33;;
13406;SDS011;6774;48.208;10.766;2023-03-23T03:12:11;3.73;;;3.53;;
13406;SDS011;6774;48.208;10.766;2023-03-23T03:14:44;3.77;;;3.57;;
13406;SDS011;6774;48.208;10.766;2023-03-23T03:17:19;5.30;;;3.50;;
13406;SDS011;6774;48.208;10.766;2023-03-23T03:19:52;5.93;;;5.43;;
13406;SDS011;6774;48.208;10.766;2023-03-23T03:22:25;2.80;;;2.60;;
13406;SDS011;6774;48.208;10.766;2023-03-23T03:24:55;2.20;;;2.10;;
13406;SDS011;6774;48.208;10.766;2023-03-23T03:27:24;3.43;;;3.23;;
13406;SDS011;6774;48.208;10.766;2023-03-23T03:30:09;3.17;;;2.87;;
13406;SDS011;6774;48.208;10.766;2023-03-23T03:32:43;3.43;;;3.13;;
13406;SDS011;6774;48.208;10.766;2023-03-23T03:35:16;4.33;;;4.03;;
13406;SDS011;6774;48.208;10.766;2023-03-23T03:37:44;4.73;;;4.37;;
13406;SDS011;6774;48.208;10.766;2023-03-23T03:40:12;4.20;;;3.23;;
13406;SDS011;6774;48.208;10.766;2023-03-23T03:42:42;2.57;;;2.37;;
13406;SDS011;6774;48.208;10.766;2023-03-23T03:45:11;3.50;;;3.27;;
13406;SDS011;6774;48.208;10.766;2023-03-23T03:47:39;3.20;;;3.00;;
13406;SDS011;6774;48.208;10.766;2023-03-23T03:50:06;3.30;;;3.00;;
13406;SDS011;6774;48.208;10.766;2023-03-23T03:52:35;3.80;;;3.50;;
13406;SDS011;6774;48.208;10.766;2023-03-23T03:55:04;3.37;;;3.17;;
13406;SDS011;6774;48.208;10.766;2023-03-23T03:57:32;3.87;;;3.57;;
13406;SDS011;6774;48.208;10.766;2023-03-23T04:00:03;2.77;;;2.53;;
13406;SDS011;6774;48.208;10.766;2023-03-23T04:02:40;3.00;;;2.77;;
13406;SDS011;6774;48.208;10.766;2023-03-23T04:05:07;2.77;;;2.57;;
13406;SDS011;6774;48.208;10.766;2023-03-23T04:07:39;3.00;;;2.80;;
13406;SDS011;6774;48.208;10.766;2023-03-23T04:10:07;2.57;;;2.40;;
13406;SDS011;6774;48.208;10.766;2023-03-23T04:12:37;2.43;;;2.27;;
13406;SDS011;6774;48.208;10.766;2023-03-23T04:15:29;3.60;;;3.30;;
13406;SDS011;6774;48.208;10.766;2023-03-23T04:17:56;3.33;;;3.03;;
13406;SDS011;6774;48.208;10.766;2023-03-23T04:20:24;2.70;;;2.50;;
13406;SDS011;6774;48.208;10.766;2023-03-23T04:22:54;3.17;;;2.97;;
13406;SDS011;6774;48.208;10.766;2023-03-23T04:25:23;4.30;;;4.00;;
13406;SDS011;6774;48.208;10.766;2023-03-23T04:27:52;4.00;;;3.80;;
13406;SDS011;6774;48.208;10.766;2023-03-23T04:30:26;3.67;;;1.87;;
13406;SDS011;6774;48.208;10.766;2023-03-23T04:33:09;2.83;;;2.63;;
13406;SDS011;6774;48.208;10.766;2023-03-23T04:35:43;3.57;;;3.30;;
13406;SDS011;6774;48.208;10.766;2023-03-23T04:38:38;3.23;;;3.03;;
13406;SDS011;6774;48.208;10.766;2023-03-23T04:41:13;3.40;;;3.10;;
13406;SDS011;6774;48.208;10.766;2023-03-23T04:43:55;1.93;;;1.83;;
13406;SDS011;6774;48.208;10.766;2023-03-23T04:46:44;4.57;;;3.43;;
13406;SDS011;6774;48.208;10.766;2023-03-23T04:49:17;3.60;;;3.30;;
13406;SDS011;6774;48.208;10.766;2023-03-23T04:51:48;2.70;;;2.60;;
13406;SDS011;6774;48.208;10.766;2023-03-23T04:54:28;3.03;;;2.83;;
13406;SDS011;6774;48.208;10.766;2023-03-23T04:56:58;2.40;;;2.30;;
13406;SDS011;6774;48.208;10.766;2023-03-23T04:59:25;3.03;;;2.77;;
13406;SDS011;6774;48.208;10.766;2023-03-23T05:02:06;2.03;;;1.93;;
13406;SDS011;6774;48.208;10.766;2023-03-23T05:04:34;3.63;;;3.43;;
13406;SDS011;6774;48.208;10.766;2023-03-23T05:07:11;2.60;;;2.40;;
13406;SDS011;6774;48.208;10.766;2023-03-23T05:09:47;8.67;;;5.53;;
13406;SDS011;6774;48.208;10.766;2023-03-23T05:12:16;2.63;;;2.50;;
13406;SDS011;6774;48.208;10.766;2023-03-23T05:14:56;4.17;;;3.87;;
13406;SDS011;6774;48.208;10.766;2023-03-23T05:17:26;2.63;;;2.50;;
13406;SDS011;6774;48.208;10.766;2023-03-23T05:19:57;2.73;;;2.53;;
13406;SDS011;6774;48.208;10.766;2023-03-23T05:22:44;2.60;;;2.47;;
13406;SDS011;6774;48.208;10.766;2023-03-23T05:25:15;3.67;;;3.47;;
13406;SDS011;6774;48.208;10.766;2023-03-23T05:27:48;4.07;;;3.77;;
13406;SDS011;6774;48.208;10.766;2023-03-23T05:30:50;3.63;;;3.33;;
13406;SDS011;6774;48.208;10.766;2023-03-23T05:33:18;2.37;;;2.27;;
13406;SDS011;6774;48.208;10.766;2023-03-23T05:36:00;3.40;;;3.20;;
13406;SDS011;6774;48.208;10.766;2023-03-23T05:38:33;6.63;;;3.27;;
13406;SDS011;6774;48.208;10.766;2023-03-23T05:41:04;4.37;;;3.73;;
13406;SDS011;6774;48.208;10.766;2023-03-23T05:43:37;5.13;;;3.70;;
13406;SDS011;6774;48.208;10.766;2023-03-23T05:46:21;3.27;;;3.07;;
13406;SDS011;6774;48.208;10.766;2023-03-23T05:48:50;3.20;;;3.00;;
13406;SDS011;6774;48.208;10.766;2023-03-23T05:51:21;3.00;;;2.80;;
13406;SDS011;6774;48.208;10.766;2023-03-23T05:53:47;2.50;;;1.93;;
13406;SDS011;6774;48.208;10.766;2023-03-23T05:56:17;9.30;;;3.27;;
13406;SDS011;6774;48.208;10.766;2023-03-23T05:58:56;3.17;;;2.90;;
13406;SDS011;6774;48.208;10.766;2023-03-23T06:01:24;3.00;;;2.80;;
13406;SDS011;6774;48.208;10.766;2023-03-23T06:03:51;2.17;;;2.07;;
13406;SDS011;6774;48.208;10.766;2023-03-23T06:06:23;3.40;;;2.63;;
13406;SDS011;6774;48.208;10.766;2023-03-23T06:08:55;3.30;;;3.10;;
13406;SDS011;6774;48.208;10.766;2023-03-23T06:11:37;2.47;;;2.37;;
13406;SDS011;6774;48.208;10.766;2023-03-23T06:14:23;3.10;;;2.90;;
13406;SDS011;6774;48.208;10.766;2023-03-23T06:16:50;3.20;;;3.00;;
13406;SDS011;6774;48.208;10.766;2023-03-23T06:19:17;2.13;;;2.03;;
13406;SDS011;6774;48.208;10.766;2023-03-23T06:21:53;2.60;;;2.40;;
13406;SDS011;6774;48.208;10.766;2023-03-23T06:24:46;2.00;;;1.90;;
13406;SDS011;6774;48.208;10.766;2023-03-23T06:27:20;2.90;;;2.70;;
13406;SDS011;6774;48.208;10.766;2023-03-23T06:29:47;2.03;;;1.70;;
13406;SDS011;6774;48.208;10.766;2023-03-23T06:32:14;2.33;;;2.13;;
13406;SDS011;6774;48.208;10.766;2023-03-23T06:34:42;10.47;;;5.03;;
13406;SDS011;6774;48.208;10.766;2023-03-23T06:37:41;3.07;;;2.83;;
13406;SDS011;6774;48.208;10.766;2023-03-23T06:40:28;2.33;;;2.23;;
13406;SDS011;6774;48.208;10.766;2023-03-23T06:42:57;3.37;;;2.83;;
13406;SDS011;6774;48.208;10.766;2023-03-23T06:45:44;3.73;;;2.87;;
13406;SDS011;6774;48.208;10.766;2023-03-23T06:48:29;2.67;;;2.57;;
13406;SDS011;6774;48.208;10.766;2023-03-23T06:50:58;2.40;;;2.20;;
13406;SDS011;6774;48.208;10.766;2023-03-23T06:53:26;2.90;;;2.47;;
13406;SDS011;6774;48.208;10.766;2023-03-23T06:55:55;2.70;;;2.60;;
13406;SDS011;6774;48.208;10.766;2023-03-23T06:58:26;2.97;;;2.73;;
13406;SDS011;6774;48.208;10.766;2023-03-23T07:00:54;2.43;;;2.00;;
13406;SDS011;6774;48.208;10.766;2023-03-23T07:03:29;2.80;;;2.60;;
13406;SDS011;6774;48.208;10.766;2023-03-23T07:05:58;3.53;;;3.03;;
13406;SDS011;6774;48.208;10.766;2023-03-23T07:08:28;4.77;;;3.40;;
13406;SDS011;6774;48.208;10.766;2023-03-23T07:10:56;2.43;;;2.33;;
13406;SDS011;6774;48.208;10.766;2023-03-23T07:13:27;1.90;;;1.77;;
13406;SDS011;6774;48.208;10.766;2023-03-23T07:15:58;3.00;;;2.80;;
13406;SDS011;6774;48.208;10.766;2023-03-23T07:18:25;3.10;;;2.77;;
13406;SDS011;6774;48.208;10.766;2023-03-23T07:20:53;3.33;;;2.70;;
13406;SDS011;6774;48.208;10.766;2023-03-23T07:23:26;6.53;;;2.90;;
13406;SDS011;6774;48.208;10.766;2023-03-23T07:26:00;3.70;;;3.40;;
13406;SDS011;6774;48.208;10.766;2023-03-23T07:28:38;2.67;;;2.50;;
13406;SDS011;6774;48.208;10.766;2023-03-23T07:31:17;2.60;;;2.50;;
13406;SDS011;6774;48.208;10.766;2023-03-23T07:33:44;3.27;;;2.97;;
13406;SDS011;6774;48.208;10.766;2023-03-23T07:36:12;2.47;;;2.27;;
13406;SDS011;6774;48.208;10.766;2023-03-23T07:38:39;2.67;;;2.47;;
13406;SDS011;6774;48.208;10.766;2023-03-23T07:41:06;5.10;;;2.77;;
13406;SDS011;6774;48.208;10.766;2023-03-23T07:43:34;3.00;;;2.77;;
13406;SDS011;6774;48.208;10.766;2023-03-23T07:46:30;2.83;;;2.63;;
13406;SDS011;6774;48.208;10.766;2023-03-23T07:49:08;2.13;;;2.03;;
13406;SDS011;6774;48.208;10.766;2023-03-23T07:51:41;2.37;;;2.27;;
13406;SDS011;6774;48.208;10.766;2023-03-23T07:54:11;2.13;;;2.03;;
13406;SDS011;6774;48.208;10.766;2023-03-23T07:56:52;3.73;;;3.43;;
13406;SDS011;6774;48.208;10.766;2023-03-23T07:59:25;4.83;;;3.07;;
13406;SDS011;6774;48.208;10.766;2023-03-23T08:01:54;2.70;;;2.33;;
13406;SDS011;6774;48.208;10.766;2023-03-23T08:04:31;9.90;;;4.20;;
13406;SDS011;6774;48.208;10.766;2023-03-23T08:07:11;3.00;;;2.43;;
13406;SDS011;6774;48.208;10.766;2023-03-23T08:09:45;3.17;;;2.90;;
13406;SDS011;6774;48.208;10.766;2023-03-23T08:12:36;3.23;;;3.03;;
13406;SDS011;6774;48.208;10.766;2023-03-23T08:15:18;2.83;;;2.53;;
13406;SDS011;6774;48.208;10.766;2023-03-23T08:18:17;3.07;;;2.87;;
13406;SDS011;6774;48.208;10.766;2023-03-23T08:21:03;1.87;;;1.77;;
13406;SDS011;6774;48.208;10.766;2023-03-23T08:23:45;2.07;;;1.13;;
13406;SDS011;6774;48.208;10.766;2023-03-23T08:26:25;1.10;;;1.00;;
13406;SDS011;6774;48.208;10.766;2023-03-23T08:29:22;2.50;;;0.93;;
13406;SDS011;6774;48.208;10.766;2023-03-23T08:31:59;1.40;;;1.30;;
13406;SDS011;6774;48.208;10.766;2023-03-23T08:34:47;0.83;;;0.80;;
13406;SDS011;6774;48.208;10.766;2023-03-23T08:37:39;0.60;;;0.60;;
13406;SDS011;6774;48.208;10.766;2023-03-23T08:40:26;2.30;;;0.87;;
13406;SDS011;6774;48.208;10.766;2023-03-23T08:43:16;0.70;;;0.70;;
13406;SDS011;6774;48.208;10.766;2023-03-23T08:46:15;0.73;;;0.73;;
13406;SDS011;6774;48.208;10.766;2023-03-23T08:48:53;0.70;;;0.70;;
13406;SDS011;6774;48.208;10.766;2023-03-23T08:51:40;0.63;;;0.63;;
13406;SDS011;6774;48.208;10.766;2023-03-23T08:54:16;0.43;;;0.43;;
13406;SDS011;6774;48.208;10.766;2023-03-23T08:57:08;12.83;;;1.73;;
13406;SDS011;6774;48.208;10.766;2023-03-23T09:00:08;1.47;;;0.80;;
13406;SDS011;6774;48.208;10.766;2023-03-23T09:03:18;1.93;;;1.10;;
13406;SDS011;6774;48.208;10.766;2023-03-23T09:06:02;0.80;;;0.80;;
13406;SDS011;6774;48.208;10.766;2023-03-23T09:08:43;1.20;;;0.60;;
13406;SDS011;6774;48.208;10.766;2023-03-23T09:11:11;1.77;;;1.10;;
13406;SDS011;6774;48.208;10.766;2023-03-23T09:13:38;2.80;;;1.17;;
13406;SDS011;6774;48.208;10.766;2023-03-23T09:16:06;0.93;;;0.90;;
13406;SDS011;6774;48.208;10.766;2023-03-23T09:18:33;2.40;;;2.20;;
13406;SDS011;6774;48.208;10.766;2023-03-23T09:21:00;2.47;;;0.90;;
13406;SDS011;6774;48.208;10.766;2023-03-23T09:23:28;0.53;;;0.53;;
13406;SDS011;6774;48.208;10.766;2023-03-23T09:25:57;1.00;;;0.90;;
13406;SDS011;6774;48.208;10.766;2023-03-23T09:28:25;3.13;;;0.80;;
13406;SDS011;6774;48.208;10.766;2023-03-23T09:30:54;0.73;;;0.73;;
13406;SDS011;6774;48.208;10.766;2023-03-23T09:33:22;2.57;;;0.77;;
13406;SDS011;6774;48.208;10.766;2023-03-23T09:35:49;7.67;;;0.70;;
13406;SDS011;6774;48.208;10.766;2023-03-23T09:38:16;1.70;;;0.90;;
13406;SDS011;6774;48.208;10.766;2023-03-23T09:40:45;0.80;;;0.80;;
13406;SDS011;6774;48.208;10.766;2023-03-23T09:43:24;2.03;;;1.93;;
13406;SDS011;6774;48.208;10.766;2023-03-23T09:46:04;1.20;;;1.17;;
13406;SDS011;6774;48.208;10.766;2023-03-23T09:48:44;1.20;;;1.10;;
13406;SDS011;6774;48.208;10.766;2023-03-23T09:51:19;1.40;;;0.93;;
13406;SDS011;6774;48.208;10.766;2023-03-23T09:53:58;0.97;;;0.97;;
13406;SDS011;6774;48.208;10.766;2023-03-23T09:56:30;2.50;;;0.67;;
13406;SDS011;6774;48.208;10.766;2023-03-23T09:59:00;6.77;;;2.30;;
13406;SDS011;6774;48.208;10.766;2023-03-23T10:01:35;4.20;;;1.77;;
13406;SDS011;6774;48.208;10.766;2023-03-23T10:04:12;0.90;;;0.90;;
13406;SDS011;6774;48.208;10.766;2023-03-23T10:06:45;0.47;;;0.43;;
13406;SDS011;6774;48.208;10.766;2023-03-23T10:09:14;0.87;;;0.80;;
13406;SDS011;6774;48.208;10.766;2023-03-23T10:11:48;0.47;;;0.43;;
13406;SDS011;6774;48.208;10.766;2023-03-23T10:17:24;0.50;;;0.40;;
13406;SDS011;6774;48.208;10.766;2023-03-23T10:19:55;0.73;;;0.70;;
13406;SDS011;6774;48.208;10.766;2023-03-23T10:22:34;1.70;;;0.70;;
13406;SDS011;6774;48.208;10.766;2023-03-23T10:25:08;1.00;;;0.77;;
13406;SDS011;6774;48.208;10.766;2023-03-23T10:27:43;0.97;;;0.97;;
13406;SDS011;6774;48.208;10.766;2023-03-23T10:30:17;2.47;;;0.93;;
13406;SDS011;6774;48.208;10.766;2023-03-23T10:32:50;1.83;;;0.80;;
13406;SDS011;6774;48.208;10.766;2023-03-23T10:35:21;0.90;;;0.90;;
13406;SDS011;6774;48.208;10.766;2023-03-23T10:37:54;0.60;;;0.60;;
13406;SDS011;6774;48.208;10.766;2023-03-23T10:40:27;1.20;;;1.10;;
13406;SDS011;6774;48.208;10.766;2023-03-23T10:42:56;1.50;;;1.27;;
13406;SDS011;6774;48.208;10.766;2023-03-23T10:45:26;0.70;;;0.70;;
13406;SDS011;6774;48.208;10.766;2023-03-23T10:47:55;0.53;;;0.53;;
13406;SDS011;6774;48.208;10.766;2023-03-23T10:50:26;0.93;;;0.93;;
13406;SDS011;6774;48.208;10.766;2023-03-23T10:52:57;0.53;;;0.53;;
13406;SDS011;6774;48.208;10.766;2023-03-23T10:55:34;0.40;;;0.40;;
13406;SDS011;6774;48.208;10.766;2023-03-23T10:58:04;0.50;;;0.50;;
13406;SDS011;6774;48.208;10.766;2023-03-23T11:00:33;1.30;;;0.63;;
13406;SDS011;6774;48.208;10.766;2023-03-23T11:03:20;1.83;;;0.47;;
13406;SDS011;6774;48.208;10.766;2023-03-23T11:05:52;1.80;;;1.33;;
13406;SDS011;6774;48.208;10.766;2023-03-23T11:08:20;0.73;;;0.73;;
13406;SDS011;6774;48.208;10.766;2023-03-23T11:10:51;0.67;;;0.50;;
13406;SDS011;6774;48.208;10.766;2023-03-23T11:13:19;0.70;;;0.70;;
13406;SDS011;6774;48.208;10.766;2023-03-23T11:15:49;1.37;;;1.23;;
13406;SDS011;6774;48.208;10.766;2023-03-23T11:18:18;0.90;;;0.90;;
13406;SDS011;6774;48.208;10.766;2023-03-23T11:20:46;0.90;;;0.60;;
13406;SDS011;6774;48.208;10.766;2023-03-23T11:23:18;1.10;;;0.33;;
13406;SDS011;6774;48.208;10.766;2023-03-23T11:25:55;1.23;;;0.70;;
13406;SDS011;6774;48.208;10.766;2023-03-23T11:28:26;0.60;;;0.60;;
13406;SDS011;6774;48.208;10.766;2023-03-23T11:30:59;1.03;;;0.87;;
13406;SDS011;6774;48.208;10.766;2023-03-23T11:33:30;0.47;;;0.47;;
13406;SDS011;6774;48.208;10.766;2023-03-23T11:36:03;0.67;;;0.40;;
13406;SDS011;6774;48.208;10.766;2023-03-23T11:38:31;0.70;;;0.70;;
13406;SDS011;6774;48.208;10.766;2023-03-23T11:40:59;0.53;;;0.50;;
13406;SDS011;6774;48.208;10.766;2023-03-23T11:43:26;1.00;;;0.53;;
13406;SDS011;6774;48.208;10.766;2023-03-23T11:46:01;1.50;;;0.53;;
13406;SDS011;6774;48.208;10.766;2023-03-23T11:48:34;0.47;;;0.47;;
13406;SDS011;6774;48.208;10.766;2023-03-23T11:51:08;2.20;;;0.63;;
13406;SDS011;6774;48.208;10.766;2023-03-23T11:53:42;0.43;;;0.43;;
13406;SDS011;6774;48.208;10.766;2023-03-23T11:56:17;4.80;;;0.93;;
13406;SDS011;6774;48.208;10.766;2023-03-23T11:58:49;1.03;;;0.70;;
13406;SDS011;6774;48.208;10.766;2023-03-23T12:01:21;0.63;;;0.60;;
13406;SDS011;6774;48.208;10.766;2023-03-23T12:03:58;0.60;;;0.60;;
13406;SDS011;6774;48.208;10.766;2023-03-23T12:06:48;8.63;;;2.73;;
13406;SDS011;6774;48.208;10.766;2023-03-23T12:09:23;6.80;;;0.87;;
13406;SDS011;6774;48.208;10.766;2023-03-23T12:12:03;1.00;;;1.00;;
13406;SDS011;6774;48.208;10.766;2023-03-23T12:14:39;1.03;;;0.90;;
13406;SDS011;6774;48.208;10.766;2023-03-23T12:17:17;1.53;;;0.47;;
13406;SDS011;6774;48.208;10.766;2023-03-23T12:19:53;1.07;;;0.90;;
13406;SDS011;6774;48.208;10.766;2023-03-23T12:22:38;5.00;;;1.47;;
13406;SDS011;6774;48.208;10.766;2023-03-23T12:25:17;0.70;;;0.60;;
13406;SDS011;6774;48.208;10.766;2023-03-23T12:28:07;2.07;;;0.80;;
13406;SDS011;6774;48.208;10.766;2023-03-23T12:30:45;0.80;;;0.60;;
13406;SDS011;6774;48.208;10.766;2023-03-23T12:33:24;0.70;;;0.70;;
13406;SDS011;6774;48.208;10.766;2023-03-23T12:36:03;1.10;;;0.60;;
13406;SDS011;6774;48.208;10.766;2023-03-23T12:38:50;0.83;;;0.67;;
13406;SDS011;6774;48.208;10.766;2023-03-23T12:41:37;0.47;;;0.47;;
13406;SDS011;6774;48.208;10.766;2023-03-23T12:44:12;1.33;;;0.80;;
13406;SDS011;6774;48.208;10.766;2023-03-23T12:46:50;2.30;;;1.10;;
13406;SDS011;6774;48.208;10.766;2023-03-23T12:49:27;0.60;;;0.60;;
13406;SDS011;6774;48.208;10.766;2023-03-23T12:52:01;1.43;;;0.70;;
13406;SDS011;6774;48.208;10.766;2023-03-23T12:54:37;2.40;;;0.80;;
13406;SDS011;6774;48.208;10.766;2023-03-23T12:57:10;3.07;;;0.63;;
13406;SDS011;6774;48.208;10.766;2023-03-23T12:59:44;1.10;;;0.67;;
13406;SDS011;6774;48.208;10.766;2023-03-23T13:02:18;2.60;;;0.67;;
13406;SDS011;6774;48.208;10.766;2023-03-23T13:04:50;1.90;;;1.00;;
13406;SDS011;6774;48.208;10.766;2023-03-23T13:07:19;0.97;;;0.73;;
13406;SDS011;6774;48.208;10.766;2023-03-23T13:09:53;0.50;;;0.50;;
13406;SDS011;6774;48.208;10.766;2023-03-23T13:12:25;1.40;;;0.73;;
13406;SDS011;6774;48.208;10.766;2023-03-23T13:14:56;6.53;;;1.60;;
13406;SDS011;6774;48.208;10.766;2023-03-23T13:17:34;0.60;;;0.60;;
13406;SDS011;6774;48.208;10.766;2023-03-23T13:20:30;4.63;;;0.83;;
13406;SDS011;6774;48.208;10.766;2023-03-23T13:23:04;1.80;;;1.07;;
13406;SDS011;6774;48.208;10.766;2023-03-23T13:25:45;1.00;;;0.90;;
13406;SDS011;6774;48.208;10.766;2023-03-23T13:28:16;0.97;;;0.70;;
13406;SDS011;6774;48.208;10.766;2023-03-23T13:30:55;1.10;;;1.03;;
13406;SDS011;6774;48.208;10.766;2023-03-23T13:33:24;0.60;;;0.60;;
13406;SDS011;6774;48.208;10.766;2023-03-23T13:35:53;0.93;;;0.73;;
13406;SDS011;6774;48.208;10.766;2023-03-23T13:38:20;3.33;;;1.33;;
13406;SDS011;6774;48.208;10.766;2023-03-23T13:40:51;0.87;;;0.87;;
13406;SDS011;6774;48.208;10.766;2023-03-23T13:43:29;1.93;;;0.50;;
13406;SDS011;6774;48.208;10.766;2023-03-23T13:46:06;0.60;;;0.60;;
13406;SDS011;6774;48.208;10.766;2023-03-23T13:48:42;1.57;;;1.47;;
13406;SDS011;6774;48.208;10.766;2023-03-23T13:51:25;0.70;;;0.70;;
13406;SDS011;6774;48.208;10.766;2023-03-23T13:54:06;1.20;;;1.00;;
13406;SDS011;6774;48.208;10.766;2023-03-23T13:56:41;2.50;;;0.90;;
13406;SDS011;6774;48.208;10.766;2023-03-23T13:59:14;1.30;;;1.20;;
13406;SDS011;6774;48.208;10.766;2023-03-23T14:01:42;1.27;;;1.00;;
13406;SDS011;6774;48.208;10.766;2023-03-23T14:04:11;4.80;;;1.70;;
13406;SDS011;6774;48.208;10.766;2023-03-23T14:06:42;0.83;;;0.83;;
13406;SDS011;6774;48.208;10.766;2023-03-23T14:09:18;2.53;;;0.90;;
13406;SDS011;6774;48.208;10.766;2023-03-23T14:11:49;1.17;;;0.80;;
13406;SDS011;6774;48.208;10.766;2023-03-23T14:14:22;1.40;;;0.80;;
13406;SDS011;6774;48.208;10.766;2023-03-23T14:16:53;3.57;;;2.53;;
13406;SDS011;6774;48.208;10.766;2023-03-23T14:19:32;2.97;;;1.53;;
13406;SDS011;6774;48.208;10.766;2023-03-23T14:22:02;0.80;;;0.77;;
13406;SDS011;6774;48.208;10.766;2023-03-23T14:24:30;1.03;;;1.03;;
13406;SDS011;6774;48.208;10.766;2023-03-23T14:27:01;1.60;;;1.50;;
13406;SDS011;6774;48.208;10.766;2023-03-23T14:29:34;1.10;;;1.00;;
13406;SDS011;6774;48.208;10.766;2023-03-23T14:32:01;0.83;;;0.80;;
13406;SDS011;6774;48.208;10.766;2023-03-23T14:34:29;1.20;;;1.17;;
13406;SDS011;6774;48.208;10.766;2023-03-23T14:36:58;1.13;;;0.73;;
13406;SDS011;6774;48.208;10.766;2023-03-23T14:39:27;3.00;;;0.80;;
13406;SDS011;6774;48.208;10.766;2023-03-23T14:41:55;0.93;;;0.83;;
13406;SDS011;6774;48.208;10.766;2023-03-23T14:44:30;1.17;;;1.10;;
13406;SDS011;6774;48.208;10.766;2023-03-23T14:47:00;1.10;;;0.87;;
13406;SDS011;6774;48.208;10.766;2023-03-23T14:49:30;1.00;;;0.87;;
13406;SDS011;6774;48.208;10.766;2023-03-23T14:52:03;1.20;;;0.80;;
13406;SDS011;6774;48.208;10.766;2023-03-23T14:54:36;3.00;;;1.17;;
13406;SDS011;6774;48.208;10.766;2023-03-23T14:57:10;1.00;;;0.60;;
13406;SDS011;6774;48.208;10.766;2023-03-23T14:59:39;1.30;;;1.20;;
13406;SDS011;6774;48.208;10.766;2023-03-23T15:02:09;1.33;;;1.00;;
13406;SDS011;6774;48.208;10.766;2023-03-23T15:04:39;0.57;;;0.53;;
13406;SDS011;6774;48.208;10.766;2023-03-23T15:07:09;0.70;;;0.70;;
13406;SDS011;6774;48.208;10.766;2023-03-23T15:09:40;4.10;;;1.70;;
13406;SDS011;6774;48.208;10.766;2023-03-23T15:12:12;3.53;;;1.33;;
13406;SDS011;6774;48.208;10.766;2023-03-23T15:14:47;3.60;;;1.30;;
13406;SDS011;6774;48.208;10.766;2023-03-23T15:17:18;1.40;;;1.07;;
13406;SDS011;6774;48.208;10.766;2023-03-23T15:19:46;0.80;;;0.80;;
13406;SDS011;6774;48.208;10.766;2023-03-23T15:22:14;7.17;;;2.13;;
13406;SDS011;6774;48.208;10.766;2023-03-23T15:24:46;1.30;;;1.20;;
13406;SDS011;6774;48.208;10.766;2023-03-23T15:27:15;2.20;;;1.60;;
13406;SDS011;6774;48.208;10.766;2023-03-23T15:29:47;1.40;;;1.30;;
13406;SDS011;6774;48.208;10.766;2023-03-23T15:32:20;1.33;;;0.70;;
13406;SDS011;6774;48.208;10.766;2023-03-23T15:34:48;0.80;;;0.80;;